Airport View

Enter AWOS ICAO identifier for current METAR.

ex. KFNL

KAOH 250053Z AUTO 18003KT 10SM CLR 27/19 A2998 RMK AO2 SLP144 T02670194

25 May 2020 01:44

Frequency: 128.725

Phone: 419-224-6098

Other Area AWOS: KAXV - KOWX - KEDJ - KFDY

TAF KFDY 242325Z 2500/2524 23010KT P6SM FEW060 SCT250 FM250900 VRB03KT P6SM FEW250 FM251800 21009KT P6SM SCT110 PROB30 2518/2524 -TSRA BKN035CB